sensor_id;sensor_type;location;lat;lon;timestamp;temperature;humidity
3478;DHT22;37937;61.490;23.506;2023-11-21T00:00:37;-3.60;99.90
3478;DHT22;37937;61.490;23.506;2023-11-21T00:03:03;-3.60;99.90
3478;DHT22;37937;61.490;23.506;2023-11-21T00:05:29;-3.60;99.90
3478;DHT22;37937;61.490;23.506;2023-11-21T00:07:55;-3.60;99.90
3478;DHT22;37937;61.490;23.506;2023-11-21T00:10:21;-3.60;99.90
3478;DHT22;37937;61.490;23.506;2023-11-21T00:12:46;-3.60;99.90
3478;DHT22;37937;61.490;23.506;2023-11-21T00:15:13;-3.60;99.90
3478;DHT22;37937;61.490;23.506;2023-11-21T00:17:39;-3.50;99.90
3478;DHT22;37937;61.490;23.506;2023-11-21T00:20:05;-3.50;99.90
3478;DHT22;37937;61.490;23.506;2023-11-21T00:22:35;-3.50;99.90
3478;DHT22;37937;61.490;23.506;2023-11-21T00:25:01;-3.50;99.90
3478;DHT22;37937;61.490;23.506;2023-11-21T00:27:28;-3.50;99.90
3478;DHT22;37937;61.490;23.506;2023-11-21T00:29:54;-3.50;99.90
3478;DHT22;37937;61.490;23.506;2023-11-21T00:32:22;-3.50;99.90
3478;DHT22;37937;61.490;23.506;2023-11-21T00:34:48;-3.50;99.90
3478;DHT22;37937;61.490;23.506;2023-11-21T00:37:14;-3.50;99.90
3478;DHT22;37937;61.490;23.506;2023-11-21T00:39:39;-3.50;99.90
3478;DHT22;37937;61.490;23.506;2023-11-21T00:42:05;-3.50;99.90
3478;DHT22;37937;61.490;23.506;2023-11-21T00:44:31;-3.50;99.90
3478;DHT22;37937;61.490;23.506;2023-11-21T00:46:57;-3.40;99.90
3478;DHT22;37937;61.490;23.506;2023-11-21T00:49:22;-3.50;99.90
3478;DHT22;37937;61.490;23.506;2023-11-21T00:51:48;-3.40;99.90
3478;DHT22;37937;61.490;23.506;2023-11-21T00:54:13;-3.40;99.90
3478;DHT22;37937;61.490;23.506;2023-11-21T00:56:42;-3.40;99.90
3478;DHT22;37937;61.490;23.506;2023-11-21T00:59:08;-3.40;99.90
3478;DHT22;37937;61.490;23.506;2023-11-21T01:01:34;-3.30;99.90
3478;DHT22;37937;61.490;23.506;2023-11-21T01:03:59;-3.40;99.90
3478;DHT22;37937;61.490;23.506;2023-11-21T01:06:26;-3.30;99.90
3478;DHT22;37937;61.490;23.506;2023-11-21T01:08:51;-3.30;99.90
3478;DHT22;37937;61.490;23.506;2023-11-21T01:11:17;-3.30;99.90
3478;DHT22;37937;61.490;23.506;2023-11-21T01:13:43;-3.30;99.90
3478;DHT22;37937;61.490;23.506;2023-11-21T01:16:10;-3.30;99.90
3478;DHT22;37937;61.490;23.506;2023-11-21T01:18:35;-3.20;99.90
3478;DHT22;37937;61.490;23.506;2023-11-21T01:21:01;-3.20;99.90
3478;DHT22;37937;61.490;23.506;2023-11-21T01:23:27;-3.20;99.90
3478;DHT22;37937;61.490;23.506;2023-11-21T01:25:56;-3.20;99.90
3478;DHT22;37937;61.490;23.506;2023-11-21T01:28:22;-3.20;99.90
3478;DHT22;37937;61.490;23.506;2023-11-21T01:30:48;-3.20;99.90
3478;DHT22;37937;61.490;23.506;2023-11-21T01:33:14;-3.20;99.90
3478;DHT22;37937;61.490;23.506;2023-11-21T01:35:41;-3.20;99.90
3478;DHT22;37937;61.490;23.506;2023-11-21T01:38:07;-3.20;99.90
3478;DHT22;37937;61.490;23.506;2023-11-21T01:40:34;-3.20;99.90
3478;DHT22;37937;61.490;23.506;2023-11-21T01:43:00;-3.10;99.90
3478;DHT22;37937;61.490;23.506;2023-11-21T01:45:27;-3.10;99.90
3478;DHT22;37937;61.490;23.506;2023-11-21T01:47:54;-3.20;99.90
3478;DHT22;37937;61.490;23.506;2023-11-21T01:50:20;-3.10;99.90
3478;DHT22;37937;61.490;23.506;2023-11-21T01:52:47;-3.10;99.90
3478;DHT22;37937;61.490;23.506;2023-11-21T01:55:14;-3.10;99.90
3478;DHT22;37937;61.490;23.506;2023-11-21T01:57:41;-3.10;99.90
3478;DHT22;37937;61.490;23.506;2023-11-21T02:00:07;-3.10;99.90
3478;DHT22;37937;61.490;23.506;2023-11-21T02:02:45;-3.10;99.90
3478;DHT22;37937;61.490;23.506;2023-11-21T02:05:11;-3.10;99.90
3478;DHT22;37937;61.490;23.506;2023-11-21T02:07:38;-3.10;99.90
3478;DHT22;37937;61.490;23.506;2023-11-21T02:10:04;-3.10;99.90
3478;DHT22;37937;61.490;23.506;2023-11-21T02:12:31;-3.10;99.90
3478;DHT22;37937;61.490;23.506;2023-11-21T02:14:56;-3.10;99.90
3478;DHT22;37937;61.490;23.506;2023-11-21T02:17:22;-3.10;99.90
3478;DHT22;37937;61.490;23.506;2023-11-21T02:19:48;-3.10;99.90
3478;DHT22;37937;61.490;23.506;2023-11-21T02:22:17;-3.10;99.90
3478;DHT22;37937;61.490;23.506;2023-11-21T02:24:45;-3.10;99.90
3478;DHT22;37937;61.490;23.506;2023-11-21T02:27:11;-3.10;99.90
3478;DHT22;37937;61.490;23.506;2023-11-21T02:29:37;-3.10;99.90
3478;DHT22;37937;61.490;23.506;2023-11-21T02:32:03;-3.10;99.90
3478;DHT22;37937;61.490;23.506;2023-11-21T02:34:29;-3.10;99.90
3478;DHT22;37937;61.490;23.506;2023-11-21T02:36:54;-3.10;99.90
3478;DHT22;37937;61.490;23.506;2023-11-21T02:39:20;-3.10;99.90
3478;DHT22;37937;61.490;23.506;2023-11-21T02:41:47;-3.00;99.90
3478;DHT22;37937;61.490;23.506;2023-11-21T02:44:13;-3.00;99.90
3478;DHT22;37937;61.490;23.506;2023-11-21T02:46:39;-3.00;99.90
3478;DHT22;37937;61.490;23.506;2023-11-21T02:49:05;-3.00;99.90
3478;DHT22;37937;61.490;23.506;2023-11-21T02:51:32;-3.00;99.90
3478;DHT22;37937;61.490;23.506;2023-11-21T02:53:57;-3.00;99.90
3478;DHT22;37937;61.490;23.506;2023-11-21T02:56:25;-3.00;99.90
3478;DHT22;37937;61.490;23.506;2023-11-21T02:58:52;-3.00;99.90
3478;DHT22;37937;61.490;23.506;2023-11-21T03:01:17;-3.00;99.90
3478;DHT22;37937;61.490;23.506;2023-11-21T03:03:43;-3.00;99.90
3478;DHT22;37937;61.490;23.506;2023-11-21T03:06:09;-3.10;99.90
3478;DHT22;37937;61.490;23.506;2023-11-21T03:08:34;-3.00;99.90
3478;DHT22;37937;61.490;23.506;2023-11-21T03:11:01;-3.00;99.90
3478;DHT22;37937;61.490;23.506;2023-11-21T03:13:28;-3.00;99.90
3478;DHT22;37937;61.490;23.506;2023-11-21T03:15:54;-3.00;99.90
3478;DHT22;37937;61.490;23.506;2023-11-21T03:18:19;-3.00;99.90
3478;DHT22;37937;61.490;23.506;2023-11-21T03:20:47;-3.00;99.90
3478;DHT22;37937;61.490;23.506;2023-11-21T03:23:13;-3.00;99.90
3478;DHT22;37937;61.490;23.506;2023-11-21T03:25:38;-3.00;99.90
3478;DHT22;37937;61.490;23.506;2023-11-21T03:28:04;-3.00;99.90
3478;DHT22;37937;61.490;23.506;2023-11-21T03:30:30;-3.00;99.90
3478;DHT22;37937;61.490;23.506;2023-11-21T03:32:56;-3.00;99.90
3478;DHT22;37937;61.490;23.506;2023-11-21T03:35:22;-3.00;99.90
3478;DHT22;37937;61.490;23.506;2023-11-21T03:37:47;-2.90;99.90
3478;DHT22;37937;61.490;23.506;2023-11-21T03:40:13;-3.00;99.90
3478;DHT22;37937;61.490;23.506;2023-11-21T03:42:39;-2.90;99.90
3478;DHT22;37937;61.490;23.506;2023-11-21T03:45:05;-3.00;99.90
3478;DHT22;37937;61.490;23.506;2023-11-21T03:47:31;-2.90;99.90
3478;DHT22;37937;61.490;23.506;2023-11-21T03:49:57;-2.90;99.90
3478;DHT22;37937;61.490;23.506;2023-11-21T03:52:22;-2.90;99.90
3478;DHT22;37937;61.490;23.506;2023-11-21T03:54:48;-2.90;99.90
3478;DHT22;37937;61.490;23.506;2023-11-21T03:57:14;-2.90;99.90
3478;DHT22;37937;61.490;23.506;2023-11-21T03:59:39;-2.90;99.90
3478;DHT22;37937;61.490;23.506;2023-11-21T04:02:05;-2.90;99.90
3478;DHT22;37937;61.490;23.506;2023-11-21T04:04:32;-2.90;99.90
3478;DHT22;37937;61.490;23.506;2023-11-21T04:06:57;-2.90;99.90
3478;DHT22;37937;61.490;23.506;2023-11-21T04:09:23;-2.90;99.90
3478;DHT22;37937;61.490;23.506;2023-11-21T04:11:51;-2.90;99.90
3478;DHT22;37937;61.490;23.506;2023-11-21T04:14:16;-2.90;99.90
3478;DHT22;37937;61.490;23.506;2023-11-21T04:16:42;-2.90;99.90
3478;DHT22;37937;61.490;23.506;2023-11-21T04:19:08;-2.80;99.90
3478;DHT22;37937;61.490;23.506;2023-11-21T04:21:36;-2.80;99.90
3478;DHT22;37937;61.490;23.506;2023-11-21T04:24:01;-2.90;99.90
3478;DHT22;37937;61.490;23.506;2023-11-21T04:26:27;-2.80;99.90
3478;DHT22;37937;61.490;23.506;2023-11-21T04:28:53;-2.80;99.90
3478;DHT22;37937;61.490;23.506;2023-11-21T04:31:18;-2.80;99.90
3478;DHT22;37937;61.490;23.506;2023-11-21T04:33:44;-2.80;99.90
3478;DHT22;37937;61.490;23.506;2023-11-21T04:36:10;-2.90;99.90
3478;DHT22;37937;61.490;23.506;2023-11-21T04:38:36;-2.80;99.90
3478;DHT22;37937;61.490;23.506;2023-11-21T04:41:01;-2.90;99.90
3478;DHT22;37937;61.490;23.506;2023-11-21T04:43:27;-2.90;99.90
3478;DHT22;37937;61.490;23.506;2023-11-21T04:45:54;-2.80;99.90
3478;DHT22;37937;61.490;23.506;2023-11-21T04:48:20;-2.80;99.90
3478;DHT22;37937;61.490;23.506;2023-11-21T04:50:45;-2.90;99.90
3478;DHT22;37937;61.490;23.506;2023-11-21T04:53:11;-2.90;99.90
3478;DHT22;37937;61.490;23.506;2023-11-21T04:55:40;-2.90;99.90
3478;DHT22;37937;61.490;23.506;2023-11-21T04:58:06;-2.90;99.90
3478;DHT22;37937;61.490;23.506;2023-11-21T05:00:31;-3.00;99.90
3478;DHT22;37937;61.490;23.506;2023-11-21T05:02:57;-3.00;99.90
3478;DHT22;37937;61.490;23.506;2023-11-21T05:05:22;-2.90;99.90
3478;DHT22;37937;61.490;23.506;2023-11-21T05:07:49;-3.00;99.90
3478;DHT22;37937;61.490;23.506;2023-11-21T05:10:15;-3.00;99.90
3478;DHT22;37937;61.490;23.506;2023-11-21T05:12:41;-3.00;99.90
3478;DHT22;37937;61.490;23.506;2023-11-21T05:15:07;-3.00;99.90
3478;DHT22;37937;61.490;23.506;2023-11-21T05:17:35;-3.00;99.90
3478;DHT22;37937;61.490;23.506;2023-11-21T05:20:01;-3.00;99.90
3478;DHT22;37937;61.490;23.506;2023-11-21T05:22:29;-3.10;99.90
3478;DHT22;37937;61.490;23.506;2023-11-21T05:24:55;-3.00;99.90
3478;DHT22;37937;61.490;23.506;2023-11-21T05:27:21;-3.10;99.90
3478;DHT22;37937;61.490;23.506;2023-11-21T05:29:46;-3.10;99.90
3478;DHT22;37937;61.490;23.506;2023-11-21T05:32:12;-3.10;99.90
3478;DHT22;37937;61.490;23.506;2023-11-21T05:34:38;-3.10;99.90
3478;DHT22;37937;61.490;23.506;2023-11-21T05:37:03;-3.10;99.90
3478;DHT22;37937;61.490;23.506;2023-11-21T05:39:30;-3.10;99.90
3478;DHT22;37937;61.490;23.506;2023-11-21T05:41:57;-3.10;99.90
3478;DHT22;37937;61.490;23.506;2023-11-21T05:44:23;-3.10;99.90
3478;DHT22;37937;61.490;23.506;2023-11-21T05:46:49;-3.10;99.90
3478;DHT22;37937;61.490;23.506;2023-11-21T05:49:15;-3.10;99.90
3478;DHT22;37937;61.490;23.506;2023-11-21T05:51:41;-3.10;99.90
3478;DHT22;37937;61.490;23.506;2023-11-21T05:54:07;-3.10;99.90
3478;DHT22;37937;61.490;23.506;2023-11-21T05:56:33;-3.00;99.90
3478;DHT22;37937;61.490;23.506;2023-11-21T05:58:59;-3.00;99.90
3478;DHT22;37937;61.490;23.506;2023-11-21T06:01:25;-3.00;99.90
3478;DHT22;37937;61.490;23.506;2023-11-21T06:03:53;-3.00;99.90
3478;DHT22;37937;61.490;23.506;2023-11-21T06:06:20;-3.00;99.90
3478;DHT22;37937;61.490;23.506;2023-11-21T06:08:50;-3.00;99.90
3478;DHT22;37937;61.490;23.506;2023-11-21T06:11:16;-3.10;99.90
3478;DHT22;37937;61.490;23.506;2023-11-21T06:13:42;-3.10;99.90
3478;DHT22;37937;61.490;23.506;2023-11-21T06:16:07;-3.10;99.90
3478;DHT22;37937;61.490;23.506;2023-11-21T06:18:33;-3.10;99.90
3478;DHT22;37937;61.490;23.506;2023-11-21T06:21:00;-3.00;99.90
3478;DHT22;37937;61.490;23.506;2023-11-21T06:23:26;-3.00;99.90
3478;DHT22;37937;61.490;23.506;2023-11-21T06:25:52;-3.00;99.90
3478;DHT22;37937;61.490;23.506;2023-11-21T06:28:18;-3.00;99.90
3478;DHT22;37937;61.490;23.506;2023-11-21T06:30:44;-3.00;99.90
3478;DHT22;37937;61.490;23.506;2023-11-21T06:33:12;-3.00;99.90
3478;DHT22;37937;61.490;23.506;2023-11-21T06:35:38;-3.00;99.90
3478;DHT22;37937;61.490;23.506;2023-11-21T06:38:03;-3.00;99.90
3478;DHT22;37937;61.490;23.506;2023-11-21T06:40:29;-3.00;99.90
3478;DHT22;37937;61.490;23.506;2023-11-21T06:42:55;-3.10;99.90
3478;DHT22;37937;61.490;23.506;2023-11-21T06:45:20;-3.10;99.90
3478;DHT22;37937;61.490;23.506;2023-11-21T06:47:47;-3.10;99.90
3478;DHT22;37937;61.490;23.506;2023-11-21T06:50:13;-3.10;99.90
3478;DHT22;37937;61.490;23.506;2023-11-21T06:52:38;-3.10;99.90
3478;DHT22;37937;61.490;23.506;2023-11-21T06:55:04;-3.10;99.90
3478;DHT22;37937;61.490;23.506;2023-11-21T06:57:30;-3.10;99.90
3478;DHT22;37937;61.490;23.506;2023-11-21T06:59:56;-3.10;99.90
3478;DHT22;37937;61.490;23.506;2023-11-21T07:02:22;-3.00;99.90
3478;DHT22;37937;61.490;23.506;2023-11-21T07:04:48;-3.10;99.90
3478;DHT22;37937;61.490;23.506;2023-11-21T07:07:14;-3.00;99.90
3478;DHT22;37937;61.490;23.506;2023-11-21T07:09:39;-3.00;99.90
3478;DHT22;37937;61.490;23.506;2023-11-21T07:12:05;-3.10;99.90
3478;DHT22;37937;61.490;23.506;2023-11-21T07:14:33;-3.00;99.90
3478;DHT22;37937;61.490;23.506;2023-11-21T07:16:59;-3.00;99.90
3478;DHT22;37937;61.490;23.506;2023-11-21T07:19:24;-3.00;99.90
3478;DHT22;37937;61.490;23.506;2023-11-21T07:21:50;-3.00;99.90
3478;DHT22;37937;61.490;23.506;2023-11-21T07:24:16;-3.10;99.90
3478;DHT22;37937;61.490;23.506;2023-11-21T07:26:42;-3.00;99.90
3478;DHT22;37937;61.490;23.506;2023-11-21T07:29:08;-3.00;99.90
3478;DHT22;37937;61.490;23.506;2023-11-21T07:31:33;-3.00;99.90
3478;DHT22;37937;61.490;23.506;2023-11-21T07:34:03;-3.00;99.90
3478;DHT22;37937;61.490;23.506;2023-11-21T07:36:29;-3.10;99.90
3478;DHT22;37937;61.490;23.506;2023-11-21T07:38:54;-3.00;99.90
3478;DHT22;37937;61.490;23.506;2023-11-21T07:41:20;-3.00;99.90
3478;DHT22;37937;61.490;23.506;2023-11-21T07:43:46;-3.00;99.90
3478;DHT22;37937;61.490;23.506;2023-11-21T07:46:12;-3.00;99.90
3478;DHT22;37937;61.490;23.506;2023-11-21T07:48:41;-3.00;99.90
3478;DHT22;37937;61.490;23.506;2023-11-21T07:51:07;-3.00;99.90
3478;DHT22;37937;61.490;23.506;2023-11-21T07:53:33;-3.00;99.90
3478;DHT22;37937;61.490;23.506;2023-11-21T07:56:08;-3.00;99.90
3478;DHT22;37937;61.490;23.506;2023-11-21T07:58:34;-3.00;99.90
3478;DHT22;37937;61.490;23.506;2023-11-21T08:01:01;-2.90;99.90
3478;DHT22;37937;61.490;23.506;2023-11-21T08:03:27;-2.90;99.90
3478;DHT22;37937;61.490;23.506;2023-11-21T08:05:54;-2.90;99.90
3478;DHT22;37937;61.490;23.506;2023-11-21T08:08:20;-2.90;99.90
3478;DHT22;37937;61.490;23.506;2023-11-21T08:10:46;-2.80;99.90
3478;DHT22;37937;61.490;23.506;2023-11-21T08:13:13;-2.90;99.90
3478;DHT22;37937;61.490;23.506;2023-11-21T08:15:42;-2.80;99.90
3478;DHT22;37937;61.490;23.506;2023-11-21T08:18:11;-2.80;99.90
3478;DHT22;37937;61.490;23.506;2023-11-21T08:20:38;-2.80;99.90
3478;DHT22;37937;61.490;23.506;2023-11-21T08:23:05;-2.80;99.90
3478;DHT22;37937;61.490;23.506;2023-11-21T08:25:31;-2.80;99.90
3478;DHT22;37937;61.490;23.506;2023-11-21T08:27:57;-2.90;99.90
3478;DHT22;37937;61.490;23.506;2023-11-21T08:30:23;-2.80;99.90
3478;DHT22;37937;61.490;23.506;2023-11-21T08:32:49;-2.80;99.90
3478;DHT22;37937;61.490;23.506;2023-11-21T08:35:19;-2.80;99.90
3478;DHT22;37937;61.490;23.506;2023-11-21T08:37:45;-2.90;99.90
3478;DHT22;37937;61.490;23.506;2023-11-21T08:40:11;-2.90;99.90
3478;DHT22;37937;61.490;23.506;2023-11-21T08:42:42;-2.90;99.90
3478;DHT22;37937;61.490;23.506;2023-11-21T08:45:08;-2.90;99.90
3478;DHT22;37937;61.490;23.506;2023-11-21T08:47:34;-2.90;99.90
3478;DHT22;37937;61.490;23.506;2023-11-21T08:50:02;-2.90;99.90
3478;DHT22;37937;61.490;23.506;2023-11-21T08:52:28;-2.90;99.90
3478;DHT22;37937;61.490;23.506;2023-11-21T08:54:53;-2.90;99.90
3478;DHT22;37937;61.490;23.506;2023-11-21T08:57:22;-2.90;99.90
3478;DHT22;37937;61.490;23.506;2023-11-21T08:59:48;-2.80;99.90
3478;DHT22;37937;61.490;23.506;2023-11-21T09:02:13;-2.80;99.90
3478;DHT22;37937;61.490;23.506;2023-11-21T09:04:39;-2.80;99.90
3478;DHT22;37937;61.490;23.506;2023-11-21T09:07:05;-2.90;99.90
3478;DHT22;37937;61.490;23.506;2023-11-21T09:09:30;-2.90;99.90
3478;DHT22;37937;61.490;23.506;2023-11-21T09:11:56;-2.90;99.90
3478;DHT22;37937;61.490;23.506;2023-11-21T09:14:22;-3.00;99.90
3478;DHT22;37937;61.490;23.506;2023-11-21T09:16:48;-3.00;99.90
3478;DHT22;37937;61.490;23.506;2023-11-21T09:19:14;-3.00;99.90
3478;DHT22;37937;61.490;23.506;2023-11-21T09:21:40;-2.90;99.90
3478;DHT22;37937;61.490;23.506;2023-11-21T09:24:06;-2.90;99.90
3478;DHT22;37937;61.490;23.506;2023-11-21T09:26:34;-2.90;99.90
3478;DHT22;37937;61.490;23.506;2023-11-21T09:29:00;-2.80;99.90
3478;DHT22;37937;61.490;23.506;2023-11-21T09:31:27;-2.90;99.90
3478;DHT22;37937;61.490;23.506;2023-11-21T09:33:53;-2.90;99.90
3478;DHT22;37937;61.490;23.506;2023-11-21T09:36:18;-3.00;99.90
3478;DHT22;37937;61.490;23.506;2023-11-21T09:38:44;-3.00;99.90
3478;DHT22;37937;61.490;23.506;2023-11-21T09:41:15;-3.00;99.90
3478;DHT22;37937;61.490;23.506;2023-11-21T09:43:43;-3.00;99.90
3478;DHT22;37937;61.490;23.506;2023-11-21T09:46:11;-3.00;99.90
3478;DHT22;37937;61.490;23.506;2023-11-21T09:48:41;-3.00;99.90
3478;DHT22;37937;61.490;23.506;2023-11-21T09:51:08;-3.00;99.90
3478;DHT22;37937;61.490;23.506;2023-11-21T09:53:34;-3.00;99.90
3478;DHT22;37937;61.490;23.506;2023-11-21T09:56:00;-3.00;99.90
3478;DHT22;37937;61.490;23.506;2023-11-21T09:58:27;-2.90;99.90
3478;DHT22;37937;61.490;23.506;2023-11-21T10:00:54;-2.90;99.90
3478;DHT22;37937;61.490;23.506;2023-11-21T10:03:21;-2.90;99.90
3478;DHT22;37937;61.490;23.506;2023-11-21T10:05:48;-2.80;99.90
3478;DHT22;37937;61.490;23.506;2023-11-21T10:08:15;-2.90;99.90
3478;DHT22;37937;61.490;23.506;2023-11-21T10:10:44;-2.90;99.90
3478;DHT22;37937;61.490;23.506;2023-11-21T10:13:11;-2.80;99.90
3478;DHT22;37937;61.490;23.506;2023-11-21T10:15:38;-2.70;99.90
3478;DHT22;37937;61.490;23.506;2023-11-21T10:18:04;-2.80;99.90
3478;DHT22;37937;61.490;23.506;2023-11-21T10:20:31;-2.80;99.90
3478;DHT22;37937;61.490;23.506;2023-11-21T10:22:57;-2.80;99.90
3478;DHT22;37937;61.490;23.506;2023-11-21T10:25:22;-2.90;99.90
3478;DHT22;37937;61.490;23.506;2023-11-21T10:27:48;-2.90;99.90
3478;DHT22;37937;61.490;23.506;2023-11-21T10:30:17;-2.90;99.90
3478;DHT22;37937;61.490;23.506;2023-11-21T10:32:43;-2.90;99.90
3478;DHT22;37937;61.490;23.506;2023-11-21T10:35:09;-2.80;99.90
3478;DHT22;37937;61.490;23.506;2023-11-21T10:37:38;-2.80;99.90
3478;DHT22;37937;61.490;23.506;2023-11-21T10:40:11;-2.80;99.90
3478;DHT22;37937;61.490;23.506;2023-11-21T10:42:37;-2.70;99.90
3478;DHT22;37937;61.490;23.506;2023-11-21T10:45:04;-2.80;99.90
3478;DHT22;37937;61.490;23.506;2023-11-21T10:47:32;-2.80;99.90
3478;DHT22;37937;61.490;23.506;2023-11-21T10:49:57;-2.80;99.90
3478;DHT22;37937;61.490;23.506;2023-11-21T10:52:26;-2.80;99.90
3478;DHT22;37937;61.490;23.506;2023-11-21T10:54:52;-2.80;99.90
3478;DHT22;37937;61.490;23.506;2023-11-21T10:57:18;-2.80;99.90
3478;DHT22;37937;61.490;23.506;2023-11-21T10:59:45;-2.80;99.90
3478;DHT22;37937;61.490;23.506;2023-11-21T11:02:21;-2.70;99.90
3478;DHT22;37937;61.490;23.506;2023-11-21T11:04:48;-2.70;99.90
3478;DHT22;37937;61.490;23.506;2023-11-21T11:07:15;-2.60;99.90
3478;DHT22;37937;61.490;23.506;2023-11-21T11:09:44;-2.60;99.90
3478;DHT22;37937;61.490;23.506;2023-11-21T11:12:10;-2.60;99.90
3478;DHT22;37937;61.490;23.506;2023-11-21T11:14:38;-2.60;99.90
3478;DHT22;37937;61.490;23.506;2023-11-21T11:17:06;-2.70;99.90
3478;DHT22;37937;61.490;23.506;2023-11-21T11:19:34;-2.70;99.90
3478;DHT22;37937;61.490;23.506;2023-11-21T11:22:04;-2.60;99.90
3478;DHT22;37937;61.490;23.506;2023-11-21T11:27:30;-2.60;99.90
3478;DHT22;37937;61.490;23.506;2023-11-21T11:32:43;-2.70;99.90
3478;DHT22;37937;61.490;23.506;2023-11-21T11:37:42;-2.60;99.90
3478;DHT22;37937;61.490;23.506;2023-11-21T11:40:08;-2.70;99.90
3478;DHT22;37937;61.490;23.506;2023-11-21T11:42:36;-2.60;99.90
3478;DHT22;37937;61.490;23.506;2023-11-21T11:45:01;-2.60;99.90
3478;DHT22;37937;61.490;23.506;2023-11-21T11:47:31;-2.60;99.90
3478;DHT22;37937;61.490;23.506;2023-11-21T11:50:06;-2.70;99.90
3478;DHT22;37937;61.490;23.506;2023-11-21T11:52:37;-2.70;99.90
3478;DHT22;37937;61.490;23.506;2023-11-21T11:55:05;-2.60;99.90
3478;DHT22;37937;61.490;23.506;2023-11-21T11:57:31;-2.60;99.90
3478;DHT22;37937;61.490;23.506;2023-11-21T12:00:10;-2.70;99.90
3478;DHT22;37937;61.490;23.506;2023-11-21T12:02:36;-2.70;99.90
3478;DHT22;37937;61.490;23.506;2023-11-21T12:05:09;-2.70;99.90
3478;DHT22;37937;61.490;23.506;2023-11-21T12:07:44;-2.70;99.90
3478;DHT22;37937;61.490;23.506;2023-11-21T12:10:17;-2.70;99.90
3478;DHT22;37937;61.490;23.506;2023-11-21T12:12:44;-2.60;99.90
3478;DHT22;37937;61.490;23.506;2023-11-21T12:15:10;-2.60;99.90
3478;DHT22;37937;61.490;23.506;2023-11-21T12:17:37;-2.70;99.90
3478;DHT22;37937;61.490;23.506;2023-11-21T12:20:04;-2.70;99.90
3478;DHT22;37937;61.490;23.506;2023-11-21T12:22:31;-2.70;99.90
3478;DHT22;37937;61.490;23.506;2023-11-21T12:24:57;-2.70;99.90
3478;DHT22;37937;61.490;23.506;2023-11-21T12:27:22;-2.70;99.90
3478;DHT22;37937;61.490;23.506;2023-11-21T12:29:48;-2.60;99.90
3478;DHT22;37937;61.490;23.506;2023-11-21T12:32:14;-2.70;99.90
3478;DHT22;37937;61.490;23.506;2023-11-21T12:34:43;-2.60;99.90
3478;DHT22;37937;61.490;23.506;2023-11-21T12:37:09;-2.70;99.90
3478;DHT22;37937;61.490;23.506;2023-11-21T12:39:35;-2.60;99.90
3478;DHT22;37937;61.490;23.506;2023-11-21T12:42:01;-2.60;99.90
3478;DHT22;37937;61.490;23.506;2023-11-21T12:44:27;-2.60;99.90
3478;DHT22;37937;61.490;23.506;2023-11-21T12:46:54;-2.60;99.90
3478;DHT22;37937;61.490;23.506;2023-11-21T12:49:21;-2.60;99.90
3478;DHT22;37937;61.490;23.506;2023-11-21T12:51:47;-2.60;99.90
3478;DHT22;37937;61.490;23.506;2023-11-21T12:54:13;-2.60;99.90
3478;DHT22;37937;61.490;23.506;2023-11-21T12:56:39;-2.60;99.90
3478;DHT22;37937;61.490;23.506;2023-11-21T12:59:04;-2.70;99.90
3478;DHT22;37937;61.490;23.506;2023-11-21T13:01:30;-2.60;99.90
3478;DHT22;37937;61.490;23.506;2023-11-21T13:03:57;-2.60;99.90
3478;DHT22;37937;61.490;23.506;2023-11-21T13:06:23;-2.60;99.90
3478;DHT22;37937;61.490;23.506;2023-11-21T13:08:51;-2.70;99.90
3478;DHT22;37937;61.490;23.506;2023-11-21T13:11:17;-2.70;99.90
3478;DHT22;37937;61.490;23.506;2023-11-21T13:13:43;-2.70;99.90
3478;DHT22;37937;61.490;23.506;2023-11-21T13:16:09;-2.70;99.90
3478;DHT22;37937;61.490;23.506;2023-11-21T13:18:35;-2.70;99.90
3478;DHT22;37937;61.490;23.506;2023-11-21T13:21:01;-2.70;99.90
3478;DHT22;37937;61.490;23.506;2023-11-21T13:23:28;-2.80;99.90
3478;DHT22;37937;61.490;23.506;2023-11-21T13:25:57;-2.80;99.90
3478;DHT22;37937;61.490;23.506;2023-11-21T13:28:23;-2.80;99.90
3478;DHT22;37937;61.490;23.506;2023-11-21T13:30:51;-2.80;99.90
3478;DHT22;37937;61.490;23.506;2023-11-21T13:33:19;-2.80;99.90
3478;DHT22;37937;61.490;23.506;2023-11-21T13:35:52;-2.80;99.90
3478;DHT22;37937;61.490;23.506;2023-11-21T13:38:18;-2.80;99.90
3478;DHT22;37937;61.490;23.506;2023-11-21T13:40:52;-2.80;99.90
3478;DHT22;37937;61.490;23.506;2023-11-21T13:43:21;-2.80;99.90
3478;DHT22;37937;61.490;23.506;2023-11-21T13:45:49;-2.80;99.90
3478;DHT22;37937;61.490;23.506;2023-11-21T13:48:23;-2.80;99.90
3478;DHT22;37937;61.490;23.506;2023-11-21T13:50:59;-2.80;99.90
3478;DHT22;37937;61.490;23.506;2023-11-21T13:53:33;-2.70;99.90
3478;DHT22;37937;61.490;23.506;2023-11-21T13:56:02;-2.70;99.90
3478;DHT22;37937;61.490;23.506;2023-11-21T13:58:27;-2.70;99.90
3478;DHT22;37937;61.490;23.506;2023-11-21T14:01:25;-2.70;99.90
3478;DHT22;37937;61.490;23.506;2023-11-21T14:04:00;-2.70;99.90
3478;DHT22;37937;61.490;23.506;2023-11-21T14:06:47;-2.70;99.90
3478;DHT22;37937;61.490;23.506;2023-11-21T14:09:17;-2.70;99.90
3478;DHT22;37937;61.490;23.506;2023-11-21T14:11:57;-2.70;99.90
3478;DHT22;37937;61.490;23.506;2023-11-21T14:14:23;-2.70;99.90
3478;DHT22;37937;61.490;23.506;2023-11-21T14:16:53;-2.70;99.90
3478;DHT22;37937;61.490;23.506;2023-11-21T14:19:18;-2.70;99.90
3478;DHT22;37937;61.490;23.506;2023-11-21T14:21:44;-2.70;99.90
3478;DHT22;37937;61.490;23.506;2023-11-21T14:24:11;-2.70;99.90
3478;DHT22;37937;61.490;23.506;2023-11-21T14:26:41;-2.80;99.90
3478;DHT22;37937;61.490;23.506;2023-11-21T14:29:08;-2.80;99.90
3478;DHT22;37937;61.490;23.506;2023-11-21T14:31:34;-2.80;99.90
3478;DHT22;37937;61.490;23.506;2023-11-21T14:33:59;-2.90;99.90
3478;DHT22;37937;61.490;23.506;2023-11-21T14:36:27;-2.80;99.90
3478;DHT22;37937;61.490;23.506;2023-11-21T14:38:53;-2.90;99.90
3478;DHT22;37937;61.490;23.506;2023-11-21T14:41:18;-2.90;99.90
3478;DHT22;37937;61.490;23.506;2023-11-21T14:43:44;-3.00;99.90
3478;DHT22;37937;61.490;23.506;2023-11-21T14:46:12;-2.90;99.90
3478;DHT22;37937;61.490;23.506;2023-11-21T14:48:41;-2.90;99.90
3478;DHT22;37937;61.490;23.506;2023-11-21T14:51:13;-2.90;99.90
3478;DHT22;37937;61.490;23.506;2023-11-21T14:53:57;-2.90;99.90
3478;DHT22;37937;61.490;23.506;2023-11-21T14:56:32;-2.90;99.90
3478;DHT22;37937;61.490;23.506;2023-11-21T14:59:00;-2.90;99.90
3478;DHT22;37937;61.490;23.506;2023-11-21T15:01:31;-2.80;99.90
3478;DHT22;37937;61.490;23.506;2023-11-21T15:04:16;-2.90;99.90
3478;DHT22;37937;61.490;23.506;2023-11-21T15:06:53;-2.90;99.90
3478;DHT22;37937;61.490;23.506;2023-11-21T15:09:21;-2.90;99.90
3478;DHT22;37937;61.490;23.506;2023-11-21T15:12:01;-3.00;99.90
3478;DHT22;37937;61.490;23.506;2023-11-21T15:14:40;-3.00;99.90
3478;DHT22;37937;61.490;23.506;2023-11-21T15:17:06;-2.90;99.90
3478;DHT22;37937;61.490;23.506;2023-11-21T15:19:33;-2.90;99.90
3478;DHT22;37937;61.490;23.506;2023-11-21T15:21:59;-2.90;99.90
3478;DHT22;37937;61.490;23.506;2023-11-21T15:24:25;-3.00;99.90
3478;DHT22;37937;61.490;23.506;2023-11-21T15:26:51;-3.00;99.90
3478;DHT22;37937;61.490;23.506;2023-11-21T15:29:16;-3.00;99.90
3478;DHT22;37937;61.490;23.506;2023-11-21T15:31:43;-3.00;99.90
3478;DHT22;37937;61.490;23.506;2023-11-21T15:34:17;-3.00;99.90
3478;DHT22;37937;61.490;23.506;2023-11-21T15:36:42;-3.00;99.90